createdAt,value
2022-08-22T00:00:16.668Z,61.93
2022-08-22T00:02:56.789Z,55.94
2022-08-22T00:05:51.477Z,62.42
2022-08-22T00:08:59.363Z,62.81
2022-08-22T00:11:32.030Z,62.36
2022-08-22T00:14:17.376Z,62.44
2022-08-22T00:16:57.626Z,62.78
2022-08-22T00:19:53.361Z,63.04
2022-08-22T00:22:26.227Z,62.74
2022-08-22T00:25:02.899Z,62.63
2022-08-22T00:27:37.895Z,62.62
2022-08-22T00:30:16.516Z,62.51
2022-08-22T00:32:53.053Z,62.53
2022-08-22T00:35:22.745Z,62.62
2022-08-22T00:38:08.187Z,62.58
2022-08-22T00:40:53.639Z,62.35
2022-08-22T00:43:38.613Z,62.23
2022-08-22T00:46:33.131Z,62.72
2022-08-22T00:49:37.530Z,62.91
2022-08-22T00:52:23.976Z,63.09
2022-08-22T00:54:53.642Z,63.19
2022-08-22T00:57:35.302Z,63.11
2022-08-22T01:00:20.638Z,63.16
2022-08-22T01:03:05.358Z,63.44
2022-08-22T01:05:53.882Z,63.29
2022-08-22T01:08:39.676Z,63.47
2022-08-22T01:11:50.568Z,63.51
2022-08-22T01:14:34.289Z,63.68
2022-08-22T01:17:33.217Z,64.02
2022-08-22T01:20:24.373Z,64.30
2022-08-22T01:23:13.784Z,64.35
2022-08-22T01:26:10.720Z,64.31
2022-08-22T01:28:38.611Z,64.52
2022-08-22T01:31:25.483Z,64.59
2022-08-22T01:34:31.308Z,64.75
2022-08-22T01:37:30.671Z,64.77
2022-08-22T01:40:31.129Z,64.91
2022-08-22T01:43:21.993Z,64.96
2022-08-22T01:46:08.566Z,65.09
2022-08-22T01:49:16.514Z,65.18
2022-08-22T01:51:51.457Z,65.19
2022-08-22T01:54:27.077Z,65.07
2022-08-22T01:57:01.065Z,65.06
2022-08-22T01:59:42.456Z,65.00
2022-08-22T02:02:32.034Z,65.39
2022-08-22T02:05:16.990Z,65.88
2022-08-22T02:07:56.440Z,66.07
2022-08-22T02:10:23.486Z,66.63
2022-08-22T02:13:00.249Z,66.88
2022-08-22T02:15:41.282Z,67.00
2022-08-22T02:18:25.890Z,66.67
2022-08-22T02:21:05.111Z,66.82
2022-08-22T02:23:58.560Z,67.42
2022-08-22T02:26:28.017Z,67.42
2022-08-22T02:29:04.706Z,67.79
2022-08-22T02:31:53.308Z,67.83
2022-08-22T02:34:37.131Z,67.89
2022-08-22T02:37:15.610Z,68.28
2022-08-22T02:39:56.432Z,68.66
2022-08-22T02:42:43.232Z,68.62
2022-08-22T02:45:20.881Z,68.62
2022-08-22T02:47:55.807Z,68.75
2022-08-22T02:51:01.365Z,68.88
2022-08-22T02:54:08.936Z,68.90
2022-08-22T02:56:43.770Z,69.30
2022-08-22T02:59:34.911Z,69.37
2022-08-22T03:02:29.672Z,69.52
2022-08-22T03:05:29.573Z,69.32
2022-08-22T03:08:12.939Z,69.66
2022-08-22T03:10:45.480Z,70.00
2022-08-22T03:13:24.585Z,70.31
2022-08-22T03:16:04.514Z,70.54
2022-08-22T03:18:41.374Z,70.80
2022-08-22T03:21:17.157Z,70.55
2022-08-22T03:23:50.481Z,69.64
2022-08-22T03:26:33.407Z,70.22
2022-08-22T03:29:11.553Z,70.80
2022-08-22T03:32:04.956Z,71.04
2022-08-22T03:34:31.616Z,71.06
2022-08-22T03:37:20.839Z,71.28
2022-08-22T03:40:15.029Z,71.39
2022-08-22T03:43:09.055Z,71.53
2022-08-22T03:45:57.941Z,71.39
2022-08-22T03:48:43.109Z,71.31
2022-08-22T03:51:40.740Z,70.99
2022-08-22T03:54:30.420Z,71.22
2022-08-22T03:57:35.231Z,71.48
2022-08-22T04:00:31.938Z,72.28
2022-08-22T04:02:58.516Z,71.43
2022-08-22T04:05:27.680Z,71.39
2022-08-22T04:08:29.153Z,72.14
2022-08-22T04:11:08.232Z,72.47
2022-08-22T04:13:59.529Z,72.65
2022-08-22T04:16:43.484Z,72.92
2022-08-22T04:19:38.632Z,72.89
2022-08-22T04:22:21.669Z,72.82
2022-08-22T04:25:08.301Z,73.18
2022-08-22T04:27:45.436Z,73.11
2022-08-22T04:30:25.119Z,73.25
2022-08-22T04:33:15.269Z,73.24
2022-08-22T04:35:46.126Z,73.19
2022-08-22T04:38:20.531Z,73.32
2022-08-22T04:40:55.720Z,73.18
2022-08-22T04:43:36.383Z,73.20
2022-08-22T04:46:11.271Z,73.32
2022-08-22T04:48:45.493Z,73.83
2022-08-22T04:51:31.998Z,73.49
2022-08-22T04:54:20.040Z,73.60
2022-08-22T04:57:02.680Z,73.59
2022-08-22T04:59:30.868Z,73.58
2022-08-22T05:02:06.695Z,73.52
2022-08-22T05:04:43.609Z,73.76
2022-08-22T05:07:16.933Z,74.01
2022-08-22T05:09:49.373Z,74.36
2022-08-22T05:12:29.198Z,74.48
2022-08-22T05:15:10.018Z,74.62
2022-08-22T05:17:38.899Z,74.83
2022-08-22T05:20:11.945Z,74.63
2022-08-22T05:22:43.411Z,75.18
2022-08-22T05:25:15.038Z,74.86
2022-08-22T05:27:48.335Z,74.79
2022-08-22T05:30:22.241Z,74.69
2022-08-22T05:32:51.743Z,74.49
2022-08-22T05:35:25.215Z,74.48
2022-08-22T05:37:55.211Z,75.07
2022-08-22T05:40:29.303Z,75.34
2022-08-22T05:42:57.683Z,75.28
2022-08-22T05:45:27.027Z,76.23
2022-08-22T05:48:16.218Z,76.24
2022-08-22T05:50:50.939Z,76.80
2022-08-22T05:53:30.639Z,76.63
2022-08-22T05:56:03.290Z,77.23
2022-08-22T05:58:39.162Z,77.58
2022-08-22T06:01:20.986Z,76.60
2022-08-22T06:04:09.306Z,76.28
2022-08-22T06:06:56.512Z,75.93
2022-08-22T06:09:35.542Z,75.67
2022-08-22T06:12:21.811Z,75.67
2022-08-22T06:15:14.388Z,75.47
2022-08-22T06:18:06.630Z,75.79
2022-08-22T06:20:36.640Z,75.21
2022-08-22T06:23:05.847Z,75.23
2022-08-22T06:25:35.470Z,75.64
2022-08-22T06:28:07.881Z,75.97
2022-08-22T06:30:36.722Z,76.76
2022-08-22T06:33:12.527Z,76.96
2022-08-22T06:36:07.294Z,76.39
2022-08-22T06:38:54.397Z,76.44
2022-08-22T06:41:23.808Z,75.73
2022-08-22T06:43:52.755Z,75.39
2022-08-22T06:46:36.340Z,74.49
2022-08-22T06:49:05.627Z,74.91
2022-08-22T06:51:35.559Z,74.54
2022-08-22T06:54:05.454Z,74.66
2022-08-22T06:56:44.278Z,73.86
2022-08-22T06:59:17.364Z,73.37
2022-08-22T07:02:17.699Z,74.07
2022-08-22T07:04:49.136Z,74.60
2022-08-22T07:07:19.912Z,73.97
2022-08-22T07:09:51.273Z,73.15
2022-08-22T07:12:20.576Z,72.45
2022-08-22T07:14:50.838Z,72.61
2022-08-22T07:17:30.517Z,70.85
2022-08-22T07:20:24.792Z,71.52
2022-08-22T07:23:01.069Z,69.10
2022-08-22T07:25:28.785Z,70.05
2022-08-22T07:28:03.836Z,70.38
2022-08-22T07:31:03.533Z,69.32
2022-08-22T07:33:43.897Z,68.25
2022-08-22T07:36:22.607Z,68.07
2022-08-22T07:39:11.180Z,68.43
2022-08-22T07:41:58.019Z,67.73
2022-08-22T07:44:31.213Z,67.31
2022-08-22T07:47:49.652Z,67.07
2022-08-22T07:50:23.153Z,64.65
2022-08-22T07:52:52.568Z,62.11
2022-08-22T07:55:23.282Z,62.14
2022-08-22T07:58:04.003Z,62.51
2022-08-22T08:00:32.408Z,63.94
2022-08-22T08:03:04.653Z,63.29
2022-08-22T08:05:36.398Z,63.16
2022-08-22T08:08:21.291Z,63.57
2022-08-22T08:10:50.749Z,63.59
2022-08-22T08:13:26.310Z,63.68
2022-08-22T08:15:53.505Z,64.23
2022-08-22T08:18:25.850Z,62.63
2022-08-22T08:20:57.431Z,62.52
2022-08-22T08:23:26.607Z,62.09
2022-08-22T08:26:10.444Z,61.53
2022-08-22T08:28:58.189Z,59.27
2022-08-22T08:31:27.942Z,59.20
2022-08-22T08:34:09.121Z,59.27
2022-08-22T08:36:56.049Z,57.19
2022-08-22T08:40:01.020Z,57.37
2022-08-22T08:43:05.112Z,52.59
2022-08-22T08:45:37.249Z,50.63
2022-08-22T08:48:38.670Z,50.48
2022-08-22T08:51:40.857Z,46.49
2022-08-22T08:54:33.002Z,46.90
2022-08-22T08:57:25.648Z,47.08
2022-08-22T09:00:14.567Z,47.69
2022-08-22T09:02:53.703Z,48.68
2022-08-22T09:05:49.476Z,47.95
2022-08-22T09:08:52.734Z,49.06
2022-08-22T09:11:51.222Z,48.82
2022-08-22T09:14:50.663Z,47.60
2022-08-22T09:17:54.788Z,46.01
2022-08-22T09:20:25.403Z,47.07
2022-08-22T09:23:13.850Z,45.71
2022-08-22T09:26:09.934Z,46.16
2022-08-22T09:28:53.356Z,46.35
2022-08-22T09:34:36.017Z,45.12
2022-08-22T09:37:20.903Z,44.60
2022-08-22T09:40:00.051Z,45.02
2022-08-22T09:43:11.008Z,42.92
2022-08-22T09:45:50.054Z,40.91
2022-08-22T09:48:28.764Z,39.90
2022-08-22T09:51:32.269Z,39.62
2022-08-22T09:54:23.053Z,39.35
2022-08-22T09:56:57.135Z,40.34
2022-08-22T09:59:51.851Z,41.10
2022-08-22T10:02:27.264Z,40.68
2022-08-22T10:05:13.258Z,40.42
2022-08-22T10:08:12.844Z,39.49
2022-08-22T10:10:52.958Z,39.78
2022-08-22T10:13:46.435Z,39.74
2022-08-22T10:16:25.229Z,39.37
2022-08-22T10:19:11.891Z,40.93
2022-08-22T10:21:47.361Z,38.78
2022-08-22T10:24:25.551Z,39.75
2022-08-22T10:27:01.773Z,40.01
2022-08-22T10:29:47.198Z,39.13
2022-08-22T10:32:28.218Z,39.53
2022-08-22T10:34:59.627Z,39.96
2022-08-22T10:37:39.520Z,39.79
2022-08-22T10:40:29.143Z,40.63
2022-08-22T10:42:59.853Z,39.54
2022-08-22T10:45:45.559Z,40.06
2022-08-22T10:48:12.059Z,39.78
2022-08-22T10:51:04.411Z,39.79
2022-08-22T10:53:53.837Z,40.10
2022-08-22T10:56:34.443Z,41.53
2022-08-22T10:59:23.319Z,41.43
2022-08-22T11:02:02.095Z,42.05
2022-08-22T11:05:06.092Z,41.25
2022-08-22T11:08:01.104Z,40.85
2022-08-22T11:10:41.198Z,40.49
2022-08-22T11:13:14.018Z,40.54
2022-08-22T11:16:07.974Z,40.04
2022-08-22T11:19:01.918Z,40.76
2022-08-22T11:21:45.946Z,41.50
2022-08-22T11:24:36.177Z,41.13
2022-08-22T11:27:21.871Z,41.38
2022-08-22T11:30:20.545Z,40.91
2022-08-22T11:33:02.341Z,41.29
2022-08-22T11:35:39.352Z,41.88
2022-08-22T11:38:14.735Z,40.59
2022-08-22T11:40:49.383Z,40.29
2022-08-22T11:43:37.598Z,40.46
2022-08-22T11:46:15.726Z,39.26
2022-08-22T11:49:15.991Z,38.37
2022-08-22T11:52:07.268Z,39.30
2022-08-22T11:55:01.569Z,39.18
2022-08-22T11:57:36.481Z,39.49
2022-08-22T12:00:18.184Z,39.33
2022-08-22T12:03:25.074Z,39.04
2022-08-22T12:06:19.906Z,39.85
2022-08-22T12:08:49.361Z,40.58
2022-08-22T12:11:25.009Z,40.63
2022-08-22T12:14:06.606Z,41.11
2022-08-22T12:16:36.318Z,39.85
2022-08-22T12:19:14.962Z,39.76
2022-08-22T12:21:56.487Z,39.24
2022-08-22T12:24:32.521Z,38.98
2022-08-22T12:27:18.408Z,38.57
2022-08-22T12:30:04.453Z,38.32
2022-08-22T12:32:34.011Z,36.97
2022-08-22T12:35:39.078Z,38.80
2022-08-22T12:38:29.201Z,38.17
2022-08-22T12:41:13.484Z,37.33
2022-08-22T12:44:17.667Z,37.68
2022-08-22T12:47:01.105Z,37.55
2022-08-22T12:50:13.111Z,37.67
2022-08-22T12:53:07.291Z,38.25
2022-08-22T12:55:44.818Z,37.03
2022-08-22T12:58:44.214Z,38.05
2022-08-22T13:01:12.201Z,39.06
2022-08-22T13:03:49.016Z,37.66
2022-08-22T13:06:37.045Z,37.42
2022-08-22T13:09:28.690Z,37.83
2022-08-22T13:12:20.007Z,37.22
2022-08-22T13:14:58.809Z,37.57
2022-08-22T13:17:26.223Z,37.48
2022-08-22T13:20:04.656Z,38.73
2022-08-22T13:22:34.933Z,37.75
2022-08-22T13:25:16.259Z,37.73
2022-08-22T13:27:56.696Z,38.46
2022-08-22T13:30:29.801Z,37.25
2022-08-22T13:33:04.367Z,38.05
2022-08-22T13:35:44.658Z,38.11
2022-08-22T13:38:25.622Z,38.07
2022-08-22T13:40:55.558Z,37.88
2022-08-22T13:43:32.434Z,37.72
2022-08-22T13:46:03.192Z,37.94
2022-08-22T13:48:49.582Z,37.06
2022-08-22T13:51:31.238Z,37.40
2022-08-22T13:54:02.627Z,36.88
2022-08-22T13:57:02.928Z,36.95
2022-08-22T13:59:53.636Z,37.23
2022-08-22T14:02:43.352Z,36.91
2022-08-22T14:05:17.347Z,36.36
2022-08-22T14:08:02.812Z,36.98
2022-08-22T14:10:34.600Z,36.40
2022-08-22T14:13:01.161Z,35.89
2022-08-22T14:15:32.458Z,36.88
2022-08-22T14:18:18.715Z,35.48
2022-08-22T14:20:47.524Z,35.73
2022-08-22T14:23:23.992Z,35.73
2022-08-22T14:25:54.559Z,36.52
2022-08-22T14:28:32.290Z,35.83
2022-08-22T14:31:13.549Z,34.81
2022-08-22T14:33:46.790Z,35.53
2022-08-22T14:36:24.991Z,35.24
2022-08-22T14:38:57.707Z,35.02
2022-08-22T14:41:56.089Z,34.08
2022-08-22T14:44:36.656Z,34.76
2022-08-22T14:47:08.341Z,35.39
2022-08-22T14:50:02.507Z,34.86
2022-08-22T14:53:03.001Z,34.56
2022-08-22T14:55:31.606Z,34.91
2022-08-22T14:58:07.513Z,34.71
2022-08-22T15:00:38.409Z,35.21
2022-08-22T15:03:13.947Z,35.51
2022-08-22T15:05:45.200Z,35.61
2022-08-22T15:08:21.894Z,35.23
2022-08-22T15:11:25.176Z,35.88
2022-08-22T15:13:56.716Z,35.09
2022-08-22T15:16:34.281Z,35.16
2022-08-22T15:19:03.333Z,34.99
2022-08-22T15:21:33.778Z,36.00
2022-08-22T15:24:09.573Z,34.11
2022-08-22T15:26:50.354Z,35.00
2022-08-22T15:29:31.095Z,34.10
2022-08-22T15:32:02.343Z,35.08
2022-08-22T15:34:52.302Z,34.50
2022-08-22T15:37:19.168Z,34.82
2022-08-22T15:40:40.395Z,34.46
2022-08-22T15:43:35.216Z,35.03
2022-08-22T15:46:20.792Z,36.52
2022-08-22T15:49:13.928Z,35.23
2022-08-22T15:51:46.877Z,35.94
2022-08-22T15:54:25.487Z,36.96
2022-08-22T15:56:52.748Z,36.06
2022-08-22T15:59:22.115Z,36.40
2022-08-22T16:01:59.138Z,36.99
2022-08-22T16:04:49.342Z,37.92
2022-08-22T16:07:32.595Z,37.39
2022-08-22T16:09:59.831Z,38.06
2022-08-22T16:12:29.860Z,38.51
2022-08-22T16:14:57.691Z,38.66
2022-08-22T16:17:30.035Z,38.70
2022-08-22T16:20:20.394Z,38.37
2022-08-22T16:22:58.748Z,39.26
2022-08-22T16:25:50.151Z,39.21
2022-08-22T16:28:41.424Z,39.28
2022-08-22T16:31:23.845Z,38.79
2022-08-22T16:33:51.337Z,39.29
2022-08-22T16:36:17.964Z,39.38
2022-08-22T16:38:48.555Z,39.05
2022-08-22T16:41:31.330Z,38.82
2022-08-22T16:44:28.581Z,39.10
2022-08-22T16:47:17.540Z,38.54
2022-08-22T16:49:50.279Z,39.01
2022-08-22T16:52:25.934Z,38.88
2022-08-22T16:54:58.746Z,38.61
2022-08-22T16:57:33.198Z,38.30
2022-08-22T17:00:32.163Z,38.55
2022-08-22T17:03:25.239Z,38.36
2022-08-22T17:06:16.031Z,38.91
2022-08-22T17:08:42.971Z,39.51
2022-08-22T17:11:25.380Z,39.27
2022-08-22T17:14:19.673Z,38.97
2022-08-22T17:17:15.426Z,38.59
2022-08-22T17:20:34.640Z,38.14
2022-08-22T17:23:20.882Z,37.39
2022-08-22T17:26:12.405Z,37.70
2022-08-22T17:28:54.572Z,38.00
2022-08-22T17:31:55.045Z,38.16
2022-08-22T17:34:50.665Z,38.31
2022-08-22T17:37:25.954Z,38.85
2022-08-22T17:40:17.664Z,38.97
2022-08-22T17:43:06.200Z,39.37
2022-08-22T17:46:00.536Z,38.61
2022-08-22T17:48:48.114Z,38.83
2022-08-22T17:51:32.287Z,41.22
2022-08-22T17:54:15.414Z,44.62
2022-08-22T17:56:42.015Z,47.57
2022-08-22T17:59:26.851Z,46.79
2022-08-22T18:02:09.573Z,47.64
2022-08-22T18:04:58.819Z,50.08
2022-08-22T18:07:32.361Z,42.37
2022-08-22T18:10:17.503Z,42.57
2022-08-22T18:13:01.359Z,45.19
2022-08-22T18:15:57.605Z,45.00
2022-08-22T18:18:44.872Z,45.35
2022-08-22T18:21:33.318Z,44.96
2022-08-22T18:24:14.410Z,45.13
2022-08-22T18:26:44.044Z,45.56
2022-08-22T18:29:16.236Z,48.18
2022-08-22T18:31:51.843Z,46.95
2022-08-22T18:34:21.091Z,48.87
2022-08-22T18:37:04.012Z,47.55
2022-08-22T18:39:46.688Z,44.99
2022-08-22T18:42:19.520Z,46.29
2022-08-22T18:44:46.233Z,44.82
2022-08-22T18:47:24.662Z,46.28
2022-08-22T18:49:54.787Z,44.05
2022-08-22T18:52:34.180Z,45.63
2022-08-22T18:55:19.264Z,44.30
2022-08-22T18:58:03.222Z,45.21
2022-08-22T19:01:07.401Z,43.95
2022-08-22T19:03:39.846Z,46.18
2022-08-22T19:06:09.216Z,46.58
2022-08-22T19:08:51.671Z,47.61
2022-08-22T19:11:42.013Z,44.83
2022-08-22T19:14:26.922Z,46.90
2022-08-22T19:16:59.507Z,44.65
2022-08-22T19:20:01.127Z,46.81
2022-08-22T19:22:35.947Z,44.66
2022-08-22T19:25:09.128Z,46.64
2022-08-22T19:27:41.824Z,45.71
2022-08-22T19:30:34.365Z,46.32
2022-08-22T19:33:04.225Z,48.26
2022-08-22T19:35:41.866Z,45.53
2022-08-22T19:38:10.550Z,45.85
2022-08-22T19:40:46.390Z,45.36
2022-08-22T19:43:28.209Z,46.34
2022-08-22T19:45:56.215Z,46.63
2022-08-22T19:48:31.408Z,48.53
2022-08-22T19:51:31.055Z,46.02
2022-08-22T19:54:16.299Z,46.12
2022-08-22T19:57:12.034Z,46.22
2022-08-22T20:00:02.471Z,46.87
2022-08-22T20:03:02.170Z,47.39
2022-08-22T20:05:47.373Z,47.04
2022-08-22T20:08:36.559Z,46.19
2022-08-22T20:11:26.959Z,46.34
2022-08-22T20:14:30.893Z,48.20
2022-08-22T20:17:19.480Z,49.89
2022-08-22T20:22:48.144Z,49.10
2022-08-22T20:25:41.513Z,49.77
2022-08-22T20:28:08.520Z,49.26
2022-08-22T20:30:43.538Z,49.94
2022-08-22T20:33:14.682Z,48.05
2022-08-22T20:35:45.508Z,48.78
2022-08-22T20:38:17.566Z,49.82
2022-08-22T20:41:02.702Z,49.41
2022-08-22T20:43:46.840Z,51.06
2022-08-22T20:46:32.631Z,49.88
2022-08-22T20:49:01.168Z,49.04
2022-08-22T20:51:32.254Z,51.61
2022-08-22T20:54:00.601Z,49.82
2022-08-22T20:56:57.733Z,49.95
2022-08-22T20:59:31.052Z,48.92
2022-08-22T21:02:08.935Z,50.46
2022-08-22T21:04:48.110Z,53.07
2022-08-22T21:07:23.152Z,52.72
2022-08-22T21:10:47.239Z,51.09
2022-08-22T21:13:19.811Z,52.72
2022-08-22T21:15:48.257Z,53.61
2022-08-22T21:18:29.297Z,56.64
2022-08-22T21:21:24.934Z,54.70
2022-08-22T21:24:09.780Z,54.08
2022-08-22T21:26:45.444Z,54.99
2022-08-22T21:29:11.867Z,53.29
2022-08-22T21:31:52.868Z,55.28
2022-08-22T21:34:36.487Z,54.51
2022-08-22T21:37:14.956Z,55.01
2022-08-22T21:39:48.911Z,56.41
2022-08-22T21:42:33.847Z,58.75
2022-08-22T21:45:04.344Z,56.92
2022-08-22T21:47:34.025Z,59.64
2022-08-22T21:50:15.501Z,56.26
2022-08-22T21:52:59.669Z,55.24
2022-08-22T21:55:46.954Z,55.16
2022-08-22T21:58:34.909Z,56.00
2022-08-22T22:01:31.418Z,56.67
2022-08-22T22:03:59.493Z,55.76
2022-08-22T22:06:26.887Z,56.20
2022-08-22T22:08:53.477Z,55.78
2022-08-22T22:11:20.156Z,56.88
2022-08-22T22:13:46.888Z,56.83
2022-08-22T22:16:19.681Z,56.83
2022-08-22T22:18:46.257Z,58.32
2022-08-22T22:21:12.843Z,57.05
2022-08-22T22:23:39.408Z,57.33
2022-08-22T22:26:06.181Z,58.17
2022-08-22T22:28:37.018Z,58.10
2022-08-22T22:31:04.190Z,58.49
2022-08-22T22:33:34.313Z,59.31
2022-08-22T22:36:12.868Z,58.18
2022-08-22T22:38:40.731Z,58.30
2022-08-22T22:41:07.840Z,59.01
2022-08-22T22:43:34.436Z,58.91
2022-08-22T22:46:01.089Z,58.81
2022-08-22T22:48:27.679Z,59.17
2022-08-22T22:50:55.055Z,59.51
2022-08-22T22:53:28.594Z,60.41
2022-08-22T22:56:07.700Z,60.56
2022-08-22T22:58:36.932Z,60.73
2022-08-22T23:01:20.595Z,61.04
2022-08-22T23:03:48.350Z,61.23
2022-08-22T23:06:17.733Z,62.37
2022-08-22T23:08:45.499Z,61.44
2022-08-22T23:11:13.734Z,61.91
2022-08-22T23:13:41.720Z,61.87
2022-08-22T23:16:13.740Z,62.26
2022-08-22T23:18:41.255Z,62.72
2022-08-22T23:21:10.843Z,64.85
2022-08-22T23:23:37.543Z,62.90
2022-08-22T23:26:04.203Z,62.88
2022-08-22T23:28:30.761Z,62.98
2022-08-22T23:31:07.927Z,64.03
2022-08-22T23:33:35.232Z,63.24
2022-08-22T23:36:01.981Z,63.37
2022-08-22T23:38:28.526Z,62.98
2022-08-22T23:40:55.101Z,62.97
2022-08-22T23:43:21.636Z,63.29
2022-08-22T23:45:48.221Z,63.82
2022-08-22T23:48:14.810Z,62.77
2022-08-22T23:50:41.369Z,62.95
2022-08-22T23:53:08.076Z,63.67
2022-08-22T23:55:34.657Z,64.11
2022-08-22T23:58:01.357Z,64.33
